Time;durP1;ratioP1;P1;durP2;ratioP2;P2;SDS_P1;SDS_P2;PMS_P1;PMS_P2;Temp;Humidity;BMP_temperature;BMP_pressure;BME280_temperature;BME280_humidity;BME280_pressure;Samples;Min_cycle;Max_cycle;Signal;HPM_P1;HPM_P2
2022/02/20 00:00:51;;;;;;;243.13;226.27;;;8.40;99.90;;;;;;4868310;29;20204;-83
2022/02/20 00:03:20;;;;;;;182.40;167.23;;;8.40;99.90;;;;;;4867053;29;20545;-83
2022/02/20 00:05:46;;;;;;;106.10;94.88;;;8.50;99.90;;;;;;4868822;29;20523;-82
2022/02/20 00:08:12;;;;;;;122.82;110.88;;;8.50;99.90;;;;;;4866482;29;20712;-82
2022/02/20 00:10:38;;;;;;;130.38;118.65;;;8.50;99.90;;;;;;4867514;29;20179;-83
2022/02/20 00:13:03;;;;;;;130.23;118.17;;;8.50;99.90;;;;;;4867551;29;20525;-83
2022/02/20 00:15:31;;;;;;;212.73;197.20;;;8.50;99.90;;;;;;4868293;29;20203;-83
2022/02/20 00:17:58;;;;;;;123.65;111.20;;;8.50;99.90;;;;;;4867536;29;20171;-83
2022/02/20 00:20:30;;;;;;;157.93;144.77;;;8.60;99.90;;;;;;4867744;29;20648;-83
2022/02/20 00:23:02;;;;;;;141.50;128.88;;;8.60;99.90;;;;;;4868499;29;20160;-82
2022/02/20 00:25:34;;;;;;;120.18;107.95;;;8.70;99.90;;;;;;4868271;29;20199;-82
2022/02/20 00:28:02;;;;;;;127.90;114.88;;;8.70;99.90;;;;;;4867153;29;20251;-82
2022/02/20 00:30:28;;;;;;;106.25;94.88;;;8.70;99.90;;;;;;4866162;29;20215;-83
2022/02/20 00:32:58;;;;;;;155.63;141.80;;;8.70;99.90;;;;;;4866459;29;20183;-83
2022/02/20 00:35:24;;;;;;;132.93;120.07;;;8.70;99.90;;;;;;4866506;29;20203;-82
2022/02/20 00:37:50;;;;;;;166.13;152.80;;;8.70;99.90;;;;;;4866813;29;20171;-82
2022/02/20 00:40:16;;;;;;;142.07;128.93;;;8.80;99.90;;;;;;4865724;29;20274;-82
2022/02/20 00:42:42;;;;;;;105.77;94.83;;;8.70;99.90;;;;;;4866610;29;20404;-82
2022/02/20 00:45:08;;;;;;;101.77;89.10;;;8.80;99.90;;;;;;4865332;29;21070;-82
2022/02/20 00:47:33;;;;;;;105.80;91.27;;;8.80;99.90;;;;;;4866888;29;20182;-83
2022/02/20 00:49:59;;;;;;;91.50;41.67;;;8.90;99.90;;;;;;4866930;29;20419;-82
2022/02/20 00:52:25;;;;;;;93.20;56.47;;;8.90;99.90;;;;;;4866292;29;20416;-82
2022/02/20 00:54:53;;;;;;;126.20;113.60;;;8.90;99.90;;;;;;4866465;29;20210;-83
2022/02/20 00:57:21;;;;;;;102.78;85.38;;;8.90;99.90;;;;;;4867378;29;20167;-83
2022/02/20 00:59:47;;;;;;;127.25;113.60;;;8.80;99.90;;;;;;4866718;29;20191;-82
2022/02/20 01:02:12;;;;;;;90.27;71.00;;;8.80;99.90;;;;;;4865822;29;20258;-83
2022/02/20 01:04:38;;;;;;;96.07;63.07;;;8.80;99.90;;;;;;4865903;29;20206;-83
2022/02/20 01:07:07;;;;;;;105.97;92.17;;;8.80;99.90;;;;;;4866842;29;20191;-83
2022/02/20 01:09:33;;;;;;;81.13;16.70;;;8.70;99.90;;;;;;4867264;29;20167;-82
2022/02/20 01:12:01;;;;;;;71.60;19.30;;;8.60;99.90;;;;;;4867051;29;20265;-83
2022/02/20 01:14:27;;;;;;;71.93;18.92;;;8.50;99.90;;;;;;4867053;29;20178;-83
2022/02/20 01:16:53;;;;;;;73.53;21.00;;;8.50;99.90;;;;;;4866860;29;20605;-82
2022/02/20 01:19:18;;;;;;;72.63;18.90;;;8.30;99.00;;;;;;4866869;29;20280;-83
2022/02/20 01:21:44;;;;;;;78.93;19.47;;;8.30;98.70;;;;;;4865067;29;20171;-82
2022/02/20 01:24:10;;;;;;;72.50;13.10;;;8.30;99.30;;;;;;4866298;29;20532;-82
2022/02/20 01:26:36;;;;;;;74.53;8.43;;;8.20;97.40;;;;;;4866729;29;20243;-83
2022/02/20 01:29:02;;;;;;;86.38;40.08;;;8.20;96.10;;;;;;4865070;29;20179;-82
2022/02/20 01:31:28;;;;;;;68.97;9.98;;;8.10;96.60;;;;;;4866309;29;20255;-82
2022/02/20 01:33:56;;;;;;;81.50;24.03;;;8.00;94.10;;;;;;4865319;29;20225;-82
2022/02/20 01:36:22;;;;;;;70.18;10.45;;;8.00;94.50;;;;;;4865386;29;20231;-82
2022/02/20 01:38:47;;;;;;;76.97;9.80;;;8.00;92.80;;;;;;4866570;29;20164;-83
2022/02/20 01:41:17;;;;;;;69.17;12.70;;;7.90;92.80;;;;;;4865934;29;20531;-82
2022/02/20 01:43:42;;;;;;;71.07;15.23;;;7.90;92.60;;;;;;4866667;29;20170;-82
2022/02/20 01:46:08;;;;;;;67.30;8.17;;;7.90;93.40;;;;;;4866578;29;20616;-79
2022/02/20 01:48:36;;;;;;;69.17;10.17;;;7.90;93.40;;;;;;4865907;29;20183;-82
2022/02/20 01:51:03;;;;;;;74.05;12.63;;;7.80;94.70;;;;;;4866316;29;20569;-82
2022/02/20 01:53:28;;;;;;;81.05;20.67;;;7.80;94.90;;;;;;4866326;29;20211;-83
2022/02/20 01:55:54;;;;;;;71.70;7.50;;;7.80;95.50;;;;;;4865229;29;20209;-83
2022/02/20 01:58:20;;;;;;;69.60;11.57;;;7.70;96.10;;;;;;4866096;29;20242;-82
2022/02/20 02:00:49;;;;;;;79.50;16.90;;;7.70;96.70;;;;;;4866261;29;20943;-82
2022/02/20 02:03:16;;;;;;;76.53;19.52;;;7.70;98.20;;;;;;4865528;29;20195;-83
2022/02/20 02:05:42;;;;;;;77.95;28.13;;;7.60;98.90;;;;;;4865049;29;20285;-83
2022/02/20 02:08:09;;;;;;;75.40;19.25;;;7.60;99.40;;;;;;4864867;29;20179;-83
2022/02/20 02:10:34;;;;;;;72.10;16.48;;;7.60;99.40;;;;;;4866238;29;20245;-82
2022/02/20 02:13:00;;;;;;;72.83;21.77;;;7.60;99.90;;;;;;4865849;29;20262;-83
2022/02/20 02:15:26;;;;;;;77.43;20.20;;;7.50;99.90;;;;;;4865829;29;20207;-82
2022/02/20 02:17:51;;;;;;;73.63;20.20;;;7.50;99.90;;;;;;4866504;29;20532;-82
2022/02/20 02:20:17;;;;;;;72.37;15.80;;;7.50;99.90;;;;;;4865668;29;20250;-83
2022/02/20 02:22:43;;;;;;;73.80;14.87;;;7.50;99.90;;;;;;4865982;29;20195;-82
2022/02/20 02:25:09;;;;;;;72.20;11.40;;;7.50;99.90;;;;;;4865412;29;20199;-82
2022/02/20 02:27:35;;;;;;;73.57;20.45;;;7.50;99.90;;;;;;4865697;29;20513;-83
2022/02/20 02:30:05;;;;;;;76.45;18.27;;;7.40;99.90;;;;;;4864898;29;20652;-83
2022/02/20 02:32:31;;;;;;;80.20;14.10;;;7.40;99.90;;;;;;4865145;29;20179;-82
2022/02/20 02:34:56;;;;;;;74.17;14.83;;;7.30;99.90;;;;;;4864718;29;20203;-82
2022/02/20 02:37:22;;;;;;;72.47;15.87;;;7.30;99.90;;;;;;4865687;29;20181;-83
2022/02/20 02:39:48;;;;;;;74.53;18.70;;;7.20;99.90;;;;;;4865855;29;20171;-82
2022/02/20 02:42:14;;;;;;;77.85;14.02;;;7.20;99.90;;;;;;4865483;29;20175;-83
2022/02/20 02:44:40;;;;;;;75.25;19.15;;;7.20;99.90;;;;;;4865572;29;20167;-83
2022/02/20 02:47:07;;;;;;;73.47;22.88;;;7.10;99.90;;;;;;4864493;29;20199;-83
2022/02/20 02:49:34;;;;;;;75.00;18.98;;;7.10;99.90;;;;;;4864752;29;20182;-83
2022/02/20 02:52:05;;;;;;;73.65;18.85;;;7.10;99.90;;;;;;4864525;29;20172;-83
2022/02/20 02:54:31;;;;;;;72.07;19.20;;;7.00;99.90;;;;;;4866160;29;20174;-83
2022/02/20 02:56:56;;;;;;;71.17;18.43;;;7.00;99.90;;;;;;4865974;29;20211;-83
2022/02/20 02:59:22;;;;;;;75.23;20.90;;;7.00;99.90;;;;;;4865329;29;20428;-83
2022/02/20 03:01:50;;;;;;;72.17;17.53;;;7.00;99.90;;;;;;4865551;29;20176;-83
2022/02/20 03:04:16;;;;;;;75.05;16.20;;;6.90;99.90;;;;;;4865605;29;20172;-83
2022/02/20 03:06:42;;;;;;;84.03;16.77;;;6.90;99.90;;;;;;4866210;29;20712;-83
2022/02/20 03:09:07;;;;;;;74.70;17.77;;;6.90;99.90;;;;;;4868847;29;20167;-83
2022/02/20 03:11:33;;;;;;;78.23;18.80;;;6.90;99.90;;;;;;4868600;29;20174;-83
2022/02/20 03:14:00;;;;;;;72.47;16.70;;;6.90;99.90;;;;;;4868731;29;20565;-83
2022/02/20 03:16:25;;;;;;;74.15;15.68;;;6.80;99.90;;;;;;4867609;29;20493;-83
2022/02/20 03:18:51;;;;;;;80.90;16.90;;;6.80;99.90;;;;;;4868467;29;20167;-83
2022/02/20 03:21:17;;;;;;;70.67;16.10;;;6.80;99.90;;;;;;4868817;29;20168;-83
2022/02/20 03:23:43;;;;;;;72.80;13.63;;;6.70;99.90;;;;;;4868219;29;20167;-83
2022/02/20 03:26:08;;;;;;;85.30;17.03;;;6.70;99.90;;;;;;4868707;29;20191;-82
2022/02/20 03:28:36;;;;;;;74.23;18.17;;;6.70;99.90;;;;;;4868707;29;20419;-83
2022/02/20 03:31:02;;;;;;;70.97;14.90;;;6.60;99.90;;;;;;4868865;29;20179;-83
2022/02/20 03:33:28;;;;;;;71.77;16.20;;;6.60;99.90;;;;;;4867158;29;20176;-83
2022/02/20 03:35:59;;;;;;;70.47;14.18;;;6.60;99.90;;;;;;4866951;29;20218;-83
2022/02/20 03:38:25;;;;;;;71.68;12.70;;;6.60;99.90;;;;;;4868861;29;20159;-83
2022/02/20 03:40:50;;;;;;;75.00;15.93;;;6.50;99.90;;;;;;4867732;29;20616;-83
2022/02/20 03:43:16;;;;;;;74.27;17.40;;;6.50;99.90;;;;;;4868331;29;20531;-83
2022/02/20 03:45:42;;;;;;;70.67;15.07;;;6.50;99.90;;;;;;4868607;29;20691;-83
2022/02/20 03:48:07;;;;;;;74.10;14.87;;;6.50;99.90;;;;;;4868260;29;20667;-83
2022/02/20 03:50:33;;;;;;;74.60;17.27;;;6.50;99.90;;;;;;4867618;29;20231;-83
2022/02/20 03:52:59;;;;;;;79.87;17.73;;;6.50;99.90;;;;;;4866648;29;20648;-83
2022/02/20 03:55:24;;;;;;;71.87;15.87;;;6.50;99.90;;;;;;4866188;29;20699;-83
2022/02/20 03:57:50;;;;;;;73.63;19.13;;;6.50;99.90;;;;;;4867897;29;20163;-83
2022/02/20 04:00:25;;;;;;;74.47;15.80;;;6.50;99.90;;;;;;4867908;29;20164;-83
2022/02/20 04:02:50;;;;;;;74.35;20.10;;;6.40;99.90;;;;;;4867648;29;20151;-83
2022/02/20 04:05:18;;;;;;;72.80;18.17;;;6.30;99.90;;;;;;4868201;29;20215;-83
2022/02/20 04:07:43;;;;;;;73.60;16.05;;;6.20;99.90;;;;;;4867560;29;20163;-83
2022/02/20 04:10:11;;;;;;;72.67;15.50;;;6.20;99.90;;;;;;4867854;29;20246;-83
2022/02/20 04:12:37;;;;;;;74.45;23.92;;;6.00;99.90;;;;;;4867087;29;20167;-83
2022/02/20 04:15:06;;;;;;;72.20;14.50;;;5.90;99.90;;;;;;4867581;29;20235;-83
2022/02/20 04:17:48;;;;;;;74.95;17.25;;;5.90;99.90;;;;;;4867130;29;20164;-83
2022/02/20 04:20:15;;;;;;;72.07;15.00;;;5.70;99.90;;;;;;4867441;29;20160;-83
2022/02/20 04:22:45;;;;;;;73.18;17.92;;;5.60;99.90;;;;;;4867186;29;20648;-83
2022/02/20 04:25:11;;;;;;;73.70;15.05;;;5.40;99.90;;;;;;4867544;29;20195;-83
2022/02/20 04:27:38;;;;;;;81.15;34.92;;;5.30;99.90;;;;;;4867463;29;20175;-83
2022/02/20 04:30:07;;;;;;;78.63;32.65;;;5.30;99.90;;;;;;4867210;29;20176;-83
2022/02/20 04:32:33;;;;;;;73.13;18.58;;;5.20;99.90;;;;;;4867033;29;20172;-83
2022/02/20 04:34:59;;;;;;;74.55;17.63;;;5.30;99.90;;;;;;4867489;29;20288;-83
2022/02/20 04:37:25;;;;;;;75.50;18.00;;;5.20;99.90;;;;;;4867180;29;20640;-83
2022/02/20 04:39:51;;;;;;;80.10;22.67;;;5.20;99.90;;;;;;4867023;29;20410;-83
2022/02/20 04:42:17;;;;;;;99.85;74.18;;;5.10;99.90;;;;;;4867000;29;20187;-83
2022/02/20 04:44:42;;;;;;;90.73;62.80;;;5.00;99.90;;;;;;4867149;29;20535;-83
2022/02/20 04:47:08;;;;;;;101.37;85.07;;;4.90;99.90;;;;;;4866721;29;20215;-83
2022/02/20 04:49:34;;;;;;;102.53;85.53;;;4.80;99.90;;;;;;4867094;29;20188;-83
2022/02/20 04:51:59;;;;;;;96.33;76.03;;;4.80;99.90;;;;;;4867250;29;20163;-83
2022/02/20 04:54:25;;;;;;;95.20;83.83;;;4.90;99.90;;;;;;4867076;29;20227;-83
2022/02/20 04:56:51;;;;;;;105.93;95.10;;;4.90;99.90;;;;;;4865360;29;20202;-83
2022/02/20 04:59:17;;;;;;;126.83;115.33;;;4.90;99.90;;;;;;4890114;23;20226;-83
2022/02/20 05:01:43;;;;;;;169.55;155.75;;;4.90;99.90;;;;;;4883238;29;20170;-82
2022/02/20 05:04:09;;;;;;;146.02;133.57;;;4.90;99.90;;;;;;4883049;29;20262;-83
2022/02/20 05:06:35;;;;;;;168.48;155.50;;;5.00;99.90;;;;;;4883057;29;20280;-82
2022/02/20 05:09:02;;;;;;;167.47;154.30;;;5.00;99.90;;;;;;4883177;29;20243;-82
2022/02/20 05:11:28;;;;;;;170.80;157.30;;;5.00;99.90;;;;;;4881865;29;20427;-82
2022/02/20 05:13:55;;;;;;;150.30;137.07;;;5.10;99.90;;;;;;4882905;29;20209;-83
2022/02/20 05:16:22;;;;;;;132.38;120.25;;;5.20;99.90;;;;;;4882905;29;20206;-83
2022/02/20 05:18:47;;;;;;;156.02;143.45;;;5.20;99.90;;;;;;4882733;29;20170;-82
2022/02/20 05:21:13;;;;;;;171.60;157.87;;;5.20;99.90;;;;;;4882640;29;20173;-82
2022/02/20 05:23:39;;;;;;;162.38;149.43;;;5.20;99.90;;;;;;4881995;29;20240;-83
2022/02/20 05:26:08;;;;;;;143.17;131.00;;;5.30;99.90;;;;;;4882899;29;20199;-83
2022/02/20 05:28:34;;;;;;;158.55;145.40;;;5.40;99.90;;;;;;4882075;29;20647;-82
2022/02/20 05:30:59;;;;;;;137.53;125.03;;;5.40;99.90;;;;;;4882901;29;20182;-82
2022/02/20 05:33:25;;;;;;;134.27;122.40;;;5.40;99.90;;;;;;4882776;29;20206;-82
2022/02/20 05:35:51;;;;;;;144.17;131.97;;;5.40;99.90;;;;;;4881293;29;20217;-82
2022/02/20 05:38:17;;;;;;;162.37;149.17;;;5.40;99.90;;;;;;4882792;29;20423;-82
2022/02/20 05:40:43;;;;;;;135.38;123.15;;;5.40;99.90;;;;;;4883448;29;20175;-83
2022/02/20 05:43:09;;;;;;;154.63;141.38;;;5.40;99.90;;;;;;4882471;29;20162;-82
2022/02/20 05:45:35;;;;;;;152.23;139.10;;;5.50;99.90;;;;;;4881061;29;20195;-83
2022/02/20 05:48:03;;;;;;;151.33;139.00;;;5.60;99.90;;;;;;4882830;29;20760;-82
2022/02/20 05:50:29;;;;;;;167.95;154.60;;;5.60;99.90;;;;;;4882248;29;20475;-83
2022/02/20 05:52:56;;;;;;;159.65;146.70;;;5.60;99.90;;;;;;4881934;29;20250;-82
2022/02/20 05:55:24;;;;;;;163.23;150.07;;;5.60;99.90;;;;;;4882113;29;20209;-83
2022/02/20 05:57:52;;;;;;;174.43;161.07;;;5.60;99.90;;;;;;4882248;29;20171;-82
2022/02/20 06:00:24;;;;;;;163.27;150.40;;;5.60;99.90;;;;;;4882165;29;20162;-83
2022/02/20 06:02:50;;;;;;;159.90;147.10;;;5.70;99.90;;;;;;4882659;29;20234;-82
2022/02/20 06:05:16;;;;;;;199.57;185.70;;;5.70;99.90;;;;;;4880681;29;20611;-82
2022/02/20 06:07:42;;;;;;;186.33;171.60;;;5.70;99.90;;;;;;4881764;29;20179;-82
2022/02/20 06:10:09;;;;;;;192.65;178.52;;;5.80;99.90;;;;;;4882648;29;20475;-82
2022/02/20 06:12:35;;;;;;;184.10;170.05;;;5.70;99.90;;;;;;4882194;29;20171;-82
2022/02/20 06:15:01;;;;;;;229.98;214.38;;;5.80;99.90;;;;;;4880465;29;20225;-82
2022/02/20 06:17:27;;;;;;;182.13;168.43;;;5.90;99.90;;;;;;4882499;29;20171;-82
2022/02/20 06:19:53;;;;;;;182.98;168.90;;;5.90;99.90;;;;;;4880438;29;20665;-82
2022/02/20 06:22:19;;;;;;;203.43;188.15;;;5.90;99.90;;;;;;4881671;29;20182;-82
2022/02/20 06:24:44;;;;;;;172.10;158.70;;;5.90;99.90;;;;;;4880684;29;20198;-82
2022/02/20 06:27:13;;;;;;;185.30;170.77;;;5.90;99.90;;;;;;4881511;29;20287;-83
2022/02/20 06:29:39;;;;;;;188.20;174.38;;;5.90;99.90;;;;;;4882910;29;20403;-82
2022/02/20 06:32:05;;;;;;;193.17;178.93;;;5.90;99.90;;;;;;4881182;29;20627;-82
2022/02/20 06:34:30;;;;;;;184.80;169.80;;;6.00;99.90;;;;;;4881290;29;20178;-82
2022/02/20 06:36:56;;;;;;;205.00;190.40;;;6.00;99.90;;;;;;4882086;29;20651;-82
2022/02/20 06:39:22;;;;;;;215.57;200.50;;;6.00;99.90;;;;;;4882716;29;20178;-83
2022/02/20 06:41:48;;;;;;;216.27;201.10;;;6.00;99.90;;;;;;4884583;29;20167;-82
2022/02/20 06:44:14;;;;;;;187.83;174.27;;;6.00;99.90;;;;;;4885963;29;20460;-82
2022/02/20 06:46:41;;;;;;;191.38;176.98;;;6.00;99.90;;;;;;4885626;29;20197;-82
2022/02/20 06:49:07;;;;;;;147.45;135.00;;;6.00;99.90;;;;;;4885745;29;20226;-82
2022/02/20 06:51:34;;;;;;;147.10;134.40;;;6.10;99.90;;;;;;4886604;29;20170;-84
2022/02/20 06:54:00;;;;;;;127.82;115.82;;;6.00;99.90;;;;;;4886954;29;20406;-83
2022/02/20 06:56:28;;;;;;;155.77;142.13;;;6.00;99.90;;;;;;4886042;29;20202;-83
2022/02/20 06:58:54;;;;;;;176.30;162.35;;;6.10;99.90;;;;;;4886115;29;20502;-83
2022/02/20 07:01:20;;;;;;;148.47;135.63;;;6.10;99.90;;;;;;4887020;29;20205;-84
2022/02/20 07:03:45;;;;;;;133.70;121.63;;;6.10;99.90;;;;;;4887636;29;20177;-83
2022/02/20 07:06:11;;;;;;;134.43;122.40;;;6.20;99.90;;;;;;4886579;29;20194;-83
2022/02/20 07:08:37;;;;;;;146.80;133.77;;;6.30;99.90;;;;;;4886423;29;20682;-83
2022/02/20 07:11:03;;;;;;;139.13;127.23;;;6.30;99.90;;;;;;4886364;29;20170;-82
2022/02/20 07:13:29;;;;;;;166.75;153.55;;;6.30;99.90;;;;;;4885169;29;20414;-83
2022/02/20 07:15:55;;;;;;;161.40;148.47;;;6.40;99.90;;;;;;4885193;29;20206;-84
2022/02/20 07:18:21;;;;;;;152.52;140.30;;;6.40;99.90;;;;;;4886925;29;20170;-83
2022/02/20 07:20:47;;;;;;;171.27;157.85;;;6.50;99.90;;;;;;4887551;29;20253;-84
2022/02/20 07:23:13;;;;;;;183.47;168.97;;;6.60;99.90;;;;;;4886162;29;20198;-83
2022/02/20 07:25:39;;;;;;;159.23;145.88;;;6.80;99.90;;;;;;4885986;29;20199;-83
2022/02/20 07:28:05;;;;;;;167.63;154.00;;;6.90;99.90;;;;;;4886813;29;20194;-83
2022/02/20 07:30:30;;;;;;;190.10;175.80;;;7.00;99.90;;;;;;4886597;29;20411;-82
2022/02/20 07:32:57;;;;;;;198.37;183.33;;;7.10;99.90;;;;;;4885768;29;20820;-83
2022/02/20 07:35:23;;;;;;;214.93;200.00;;;7.10;99.90;;;;;;4886762;29;20546;-83
2022/02/20 07:37:49;;;;;;;187.93;173.68;;;7.10;99.90;;;;;;4884503;29;20218;-83
2022/02/20 07:40:16;;;;;;;190.03;175.77;;;7.10;99.90;;;;;;4885336;29;20291;-83
2022/02/20 07:42:42;;;;;;;215.85;200.85;;;7.20;99.90;;;;;;4885645;29;20167;-83
2022/02/20 07:45:08;;;;;;;188.43;174.25;;;7.20;99.90;;;;;;4885683;29;20348;-83
2022/02/20 07:47:48;;;;;;;175.07;161.65;;;7.30;99.90;;;;;;4884537;29;20269;-83
2022/02/20 07:50:14;;;;;;;169.38;156.25;;;7.30;99.90;;;;;;4885461;29;20652;-83
2022/02/20 07:52:39;;;;;;;281.90;263.03;;;7.30;99.90;;;;;;4884967;29;20174;-83
2022/02/20 07:55:05;;;;;;;179.97;166.40;;;7.30;99.90;;;;;;4885294;29;20457;-83
2022/02/20 07:57:31;;;;;;;195.45;180.90;;;7.30;99.90;;;;;;4886185;29;20189;-83
2022/02/20 07:59:57;;;;;;;168.13;155.30;;;7.30;99.90;;;;;;4884793;29;20191;-83
2022/02/20 08:02:22;;;;;;;166.07;152.90;;;7.30;99.90;;;;;;4884853;29;20659;-82
2022/02/20 08:04:48;;;;;;;135.03;122.93;;;7.30;99.90;;;;;;4884626;29;20171;-83
2022/02/20 08:07:14;;;;;;;130.33;118.97;;;7.40;99.90;;;;;;4884564;29;20163;-83
2022/02/20 08:09:39;;;;;;;119.50;108.10;;;7.40;99.90;;;;;;4883525;29;20173;-82
2022/02/20 08:12:05;;;;;;;131.97;119.90;;;7.40;99.90;;;;;;4884841;29;20173;-82
2022/02/20 08:14:31;;;;;;;124.30;112.27;;;7.50;99.90;;;;;;4883130;29;20234;-82
2022/02/20 08:16:57;;;;;;;129.80;118.17;;;7.50;99.90;;;;;;4883997;29;20830;-82
2022/02/20 08:19:23;;;;;;;119.28;107.88;;;7.50;99.90;;;;;;4884456;29;20575;-82
2022/02/20 08:21:49;;;;;;;151.13;138.33;;;7.60;99.90;;;;;;4882800;29;20265;-82
2022/02/20 08:24:14;;;;;;;128.97;117.40;;;7.60;99.90;;;;;;4884865;29;20181;-82
2022/02/20 08:26:40;;;;;;;108.03;97.40;;;7.70;99.90;;;;;;4883812;29;20277;-82
2022/02/20 08:29:06;;;;;;;122.53;111.40;;;7.80;99.90;;;;;;4884184;29;20185;-82
2022/02/20 08:31:31;;;;;;;116.60;105.17;;;7.90;99.90;;;;;;4884902;29;20174;-82
2022/02/20 08:33:57;;;;;;;123.23;111.63;;;8.00;99.90;;;;;;4884773;29;20170;-81
2022/02/20 08:36:23;;;;;;;193.50;179.47;;;8.10;99.90;;;;;;4883389;29;20285;-82
2022/02/20 08:38:49;;;;;;;144.05;131.77;;;8.20;99.90;;;;;;4883547;29;20171;-81
2022/02/20 08:41:15;;;;;;;110.40;99.70;;;8.30;99.90;;;;;;4884436;29;20181;-81
2022/02/20 08:43:41;;;;;;;120.10;109.05;;;8.40;99.90;;;;;;4883577;29;20484;-81
2022/02/20 08:46:07;;;;;;;207.70;191.87;;;8.50;99.90;;;;;;4883590;29;20274;-83
2022/02/20 08:48:36;;;;;;;106.50;95.90;;;8.60;99.90;;;;;;4883636;29;20170;-81
2022/02/20 08:51:06;;;;;;;120.93;109.72;;;8.70;99.90;;;;;;4883283;29;20252;-81
2022/02/20 08:53:31;;;;;;;121.68;110.28;;;8.70;99.90;;;;;;4883816;29;20258;-82
2022/02/20 08:55:57;;;;;;;126.30;115.07;;;8.80;99.90;;;;;;4882064;29;20241;-82
2022/02/20 08:58:23;;;;;;;131.10;119.70;;;8.80;99.90;;;;;;4883033;29;20179;-82
2022/02/20 09:00:48;;;;;;;133.17;121.50;;;8.90;99.90;;;;;;4883709;29;20162;-82
2022/02/20 09:03:14;;;;;;;116.70;105.77;;;8.90;99.90;;;;;;4883848;29;20171;-82
2022/02/20 09:05:39;;;;;;;144.10;132.00;;;9.00;99.90;;;;;;4883893;29;20278;-82
2022/02/20 09:08:05;;;;;;;142.10;129.53;;;9.10;99.90;;;;;;4883570;29;20695;-82
2022/02/20 09:10:31;;;;;;;134.70;122.90;;;9.10;99.90;;;;;;4883182;29;20177;-83
2022/02/20 09:12:57;;;;;;;131.33;119.47;;;9.10;99.90;;;;;;4882812;29;20171;-82
2022/02/20 09:15:22;;;;;;;116.67;105.50;;;9.10;99.90;;;;;;4882268;29;20211;-82
2022/02/20 09:17:48;;;;;;;121.93;110.77;;;9.10;99.90;;;;;;4881194;29;20201;-82
2022/02/20 09:20:14;;;;;;;206.40;191.37;;;9.20;99.90;;;;;;4882935;29;20167;-83
2022/02/20 09:22:41;;;;;;;125.77;114.40;;;9.20;99.90;;;;;;4883153;29;20927;-82
2022/02/20 09:25:09;;;;;;;94.95;84.72;;;9.30;99.90;;;;;;4883199;29;20193;-83
2022/02/20 09:27:35;;;;;;;123.20;112.07;;;9.30;99.90;;;;;;4883576;29;20245;-83
2022/02/20 09:30:01;;;;;;;105.40;94.33;;;9.30;99.90;;;;;;4883590;29;20195;-83
2022/02/20 09:32:27;;;;;;;101.83;91.37;;;9.40;99.90;;;;;;4882754;29;20391;-82
2022/02/20 09:34:53;;;;;;;101.33;90.77;;;9.50;99.90;;;;;;4881622;29;20265;-83
2022/02/20 09:37:18;;;;;;;104.70;94.10;;;9.60;99.90;;;;;;4882349;29;20485;-83
2022/02/20 09:39:44;;;;;;;90.37;66.20;;;9.60;99.90;;;;;;4881854;29;20184;-83
2022/02/20 09:42:11;;;;;;;85.07;58.30;;;9.70;99.90;;;;;;4882235;29;20250;-83
2022/02/20 09:44:36;;;;;;;81.15;45.58;;;9.80;99.90;;;;;;4881944;29;20563;-83
2022/02/20 09:47:04;;;;;;;95.33;64.47;;;9.90;99.90;;;;;;4883014;29;20227;-84
2022/02/20 09:49:29;;;;;;;75.05;32.17;;;9.90;99.90;;;;;;4880784;29;20171;-83
2022/02/20 09:51:56;;;;;;;75.43;33.00;;;10.00;99.90;;;;;;4883514;29;20177;-83
2022/02/20 09:54:22;;;;;;;76.57;35.13;;;10.00;99.90;;;;;;4882266;29;20260;-83
2022/02/20 09:56:51;;;;;;;73.78;26.00;;;10.10;99.90;;;;;;4880836;29;20217;-83
2022/02/20 09:59:17;;;;;;;73.80;28.73;;;10.10;99.90;;;;;;4882593;29;20187;-83
2022/02/20 10:02:03;;;;;;;75.33;30.80;;;10.20;99.90;;;;;;4882464;29;20162;-83
2022/02/20 10:04:41;;;;;;;79.07;32.97;;;10.20;99.90;;;;;;4882157;29;20185;-83
2022/02/20 10:07:23;;;;;;;84.07;50.03;;;10.30;99.90;;;;;;4882604;29;20254;-83
2022/02/20 10:09:49;;;;;;;75.82;27.95;;;10.30;99.90;;;;;;4882298;29;20246;-84
2022/02/20 10:12:20;;;;;;;75.67;34.37;;;10.40;99.90;;;;;;4882658;29;20599;-83
2022/02/20 10:14:45;;;;;;;73.57;29.67;;;10.50;99.90;;;;;;4882289;29;20197;-83
2022/02/20 10:17:14;;;;;;;79.73;43.87;;;10.50;99.90;;;;;;4881695;29;20183;-83
2022/02/20 10:20:00;;;;;;;84.53;58.10;;;10.60;99.90;;;;;;4882243;29;20659;-82
2022/02/20 10:22:33;;;;;;;120.57;108.57;;;10.70;99.90;;;;;;4882559;29;20155;-83
2022/02/20 10:25:01;;;;;;;87.45;67.03;;;10.70;99.90;;;;;;4882765;29;20162;-83
2022/02/20 10:27:27;;;;;;;107.40;96.55;;;10.70;99.90;;;;;;4883294;29;20535;-83
2022/02/20 10:30:08;;;;;;;105.07;92.90;;;10.70;99.90;;;;;;4883164;29;20175;-83
2022/02/20 10:32:33;;;;;;;99.30;79.75;;;10.70;99.90;;;;;;4882899;29;20554;-83
2022/02/20 10:35:07;;;;;;;95.30;83.80;;;10.70;99.90;;;;;;4884029;29;20186;-84
2022/02/20 10:37:33;;;;;;;84.97;59.88;;;10.70;99.90;;;;;;4883453;29;20171;-84
2022/02/20 10:40:21;;;;;;;86.73;62.97;;;10.70;99.90;;;;;;4882767;29;20206;-83
2022/02/20 10:42:47;;;;;;;87.13;61.00;;;10.70;99.90;;;;;;4883041;29;20505;-84
2022/02/20 10:45:33;;;;;;;80.70;47.07;;;10.70;99.90;;;;;;4881674;29;20190;-84
2022/02/20 10:48:00;;;;;;;79.82;44.78;;;10.70;99.90;;;;;;4883276;29;20155;-84
2022/02/20 10:50:28;;;;;;;92.95;82.00;;;10.60;99.90;;;;;;4882403;29;20174;-83
2022/02/20 10:53:17;;;;;;;271.25;252.73;;;10.50;99.90;;;;;;4881750;29;20478;-83
2022/02/20 10:55:54;;;;;;;144.98;132.30;;;10.60;99.90;;;;;;4880780;29;20207;-83
2022/02/20 11:25:32;;;;;;;;;;;;;;;;;;;;;
2022/02/20 11:28:46;;;;;;;;;;;;;;;;;;;;;
2022/02/20 11:35:46;;;;;;;75.88;15.98;;;11.00;99.90;;;;;;4833479;29;20186;-83
2022/02/20 11:39:07;;;;;;;70.78;15.50;;;11.00;99.90;;;;;;4825964;29;20177;-84
2022/02/20 11:48:33;;;;;;;73.82;21.05;;;11.10;99.90;;;;;;4748752;27;20259;-83
2022/02/20 11:52:18;;;;;;;70.32;16.23;;;11.20;99.90;;;;;;4844988;29;20205;-83
2022/02/20 12:00:49;;;;;;;72.90;20.50;;;11.20;99.90;;;;;;1455594;27;20209;-84
2022/02/20 12:03:56;;;;;;;71.40;17.00;;;11.30;99.90;;;;;;4863204;29;20187;-83
2022/02/20 12:07:30;;;;;;;;;;;;;;;;;;;;;
2022/02/20 12:13:50;;;;;;;74.20;17.50;;;11.30;99.90;;;;;;4882748;29;20301;-84
2022/02/20 12:28:11;;;;;;;69.15;12.73;;;11.30;99.90;;;;;;4782395;29;20174;-85
2022/02/20 12:31:24;;;;;;;;;;;;;;;;;;;;;
2022/02/20 12:34:52;;;;;;;70.00;13.77;;;11.40;99.90;;;;;;4809016;29;20169;-86
2022/02/20 12:38:19;;;;;;;73.15;16.38;;;11.40;99.90;;;;;;4737795;30;20283;-86
2022/02/20 12:41:36;;;;;;;70.43;16.05;;;11.30;99.90;;;;;;4729199;30;20191;-85
2022/02/20 12:44:44;;;;;;;73.45;14.00;;;11.30;99.90;;;;;;4863338;29;20187;-83
2022/02/20 12:51:02;;;;;;;72.00;15.60;;;11.40;99.90;;;;;;4845790;29;20774;-83
2022/02/20 12:54:07;;;;;;;72.70;18.58;;;11.40;99.90;;;;;;4846005;29;20168;-84
2022/02/20 13:04:22;;;;;;;71.47;13.30;;;11.50;99.90;;;;;;4827057;29;20184;-84
2022/02/20 13:07:22;;;;;;;68.38;12.95;;;11.50;99.90;;;;;;4819850;29;20246;-85
2022/02/20 13:10:33;;;;;;;82.03;15.07;;;11.50;99.90;;;;;;4806890;29;20185;-84
2022/02/20 13:17:05;;;;;;;79.25;17.33;;;11.50;99.90;;;;;;4772273;30;20229;-84
2022/02/20 13:34:17;;;;;;;68.13;10.40;;;11.50;99.90;;;;;;4863400;29;20184;-83
2022/02/20 13:45:03;;;;;;;69.82;9.18;;;11.60;99.90;;;;;;4812669;29;20184;-84
2022/02/20 13:52:37;;;;;;;75.50;12.00;;;11.50;99.90;;;;;;4845958;29;20288;-84
2022/02/20 13:59:45;;;;;;;70.88;14.70;;;11.60;99.90;;;;;;4784550;29;20531;-85
2022/02/20 14:02:46;;;;;;;73.75;22.73;;;11.50;99.90;;;;;;4861838;29;20260;-84
2022/02/20 14:05:57;;;;;;;75.38;20.85;;;11.40;99.90;;;;;;4864933;29;20191;-84
2022/02/20 14:08:26;;;;;;;77.72;34.80;;;11.40;99.90;;;;;;4845594;29;20184;-84
2022/02/20 14:10:59;;;;;;;84.22;43.63;;;11.30;99.90;;;;;;4845097;29;20164;-84
2022/02/20 14:13:40;;;;;;;78.57;38.83;;;11.30;99.90;;;;;;4862160;29;20190;-84
2022/02/20 14:16:32;;;;;;;81.47;36.92;;;11.20;99.90;;;;;;4863108;29;20233;-85
2022/02/20 14:18:58;;;;;;;82.90;45.08;;;11.20;99.90;;;;;;4865479;29;20203;-85
2022/02/20 14:21:29;;;;;;;75.23;28.57;;;11.20;99.90;;;;;;4865426;29;20175;-85
2022/02/20 14:23:57;;;;;;;77.00;23.27;;;11.10;99.90;;;;;;4863860;29;20455;-85
2022/02/20 14:26:58;;;;;;;79.43;24.75;;;11.00;99.90;;;;;;4865170;29;20195;-84
2022/02/20 14:29:26;;;;;;;79.38;21.77;;;11.00;99.90;;;;;;4864329;29;20166;-84
2022/02/20 14:32:06;;;;;;;77.55;21.83;;;11.00;99.90;;;;;;4863457;29;20587;-84